Time;durP1;ratioP1;P1;durP2;ratioP2;P2;SDS_P1;SDS_P2;PMS_P1;PMS_P2;Temp;Humidity;BMP_temperature;BMP_pressure;BME280_temperature;BME280_humidity;BME280_pressure;Samples;Min_cycle;Max_cycle;Signal;HPM_P1;HPM_P2
2022/11/17 00:00:21;;;;;;;2.00;0.90;;;10.10;36.90;;;;;;5093208;28;20451;-53
2022/11/17 00:02:48;;;;;;;1.90;1.00;;;10.00;37.40;;;;;;5093902;28;20429;-53
2022/11/17 00:05:15;;;;;;;1.60;0.80;;;10.00;50.60;;;;;;5092929;28;20406;-53
2022/11/17 00:07:44;;;;;;;1.50;1.00;;;9.90;66.50;;;;;;5092856;28;20421;-55
2022/11/17 00:10:13;;;;;;;1.70;0.80;;;9.90;86.80;;;;;;5092845;28;20457;-55
2022/11/17 00:15:25;;;;;;;1.60;0.95;;;9.90;99.90;;;;;;5092331;28;20413;-54
2022/11/17 00:21:17;;;;;;;1.80;0.93;;;9.90;99.90;;;;;;5092175;28;20433;-55
2022/11/17 00:23:45;;;;;;;1.38;0.80;;;9.80;99.90;;;;;;5093890;28;20408;-55
2022/11/17 00:26:15;;;;;;;1.90;1.20;;;9.90;99.90;;;;;;5097342;28;20428;-56
2022/11/17 00:28:42;;;;;;;2.13;0.90;;;9.90;99.90;;;;;;5097851;28;20831;-53
2022/11/17 00:34:05;;;;;;;1.58;0.80;;;10.00;99.90;;;;;;5097119;28;20417;-50
2022/11/17 00:36:34;;;;;;;1.95;0.80;;;10.00;77.50;;;;;;5097560;28;20418;-53
2022/11/17 00:39:01;;;;;;;1.70;0.90;;;10.00;89.80;;;;;;5096940;28;20433;-51
2022/11/17 00:41:29;;;;;;;2.30;0.93;;;10.00;66.50;;;;;;5097845;28;20429;-55
2022/11/17 00:43:56;;;;;;;1.40;1.00;;;10.00;88.80;;;;;;5097706;28;20791;-54
2022/11/17 00:46:23;;;;;;;1.52;0.90;;;10.00;78.80;;;;;;5097412;28;20422;-53
2022/11/17 00:48:50;;;;;;;2.20;0.90;;;10.00;81.50;;;;;;5096903;28;20422;-55
2022/11/17 00:51:18;;;;;;;1.20;0.90;;;9.90;87.70;;;;;;5097138;28;20444;-52
2022/11/17 00:53:45;;;;;;;2.00;1.00;;;9.80;97.30;;;;;;5097288;28;20430;-54
2022/11/17 00:56:12;;;;;;;1.52;1.00;;;9.80;97.30;;;;;;5096785;28;20413;-53
2022/11/17 00:58:40;;;;;;;1.50;0.90;;;9.80;99.90;;;;;;5096635;28;20438;-56
2022/11/17 01:01:07;;;;;;;1.50;1.00;;;9.80;99.90;;;;;;5097427;28;20422;-51
2022/11/17 01:03:34;;;;;;;2.00;1.00;;;9.90;99.90;;;;;;5096854;28;20426;-54
2022/11/17 01:06:06;;;;;;;2.13;1.02;;;9.80;99.90;;;;;;5096800;28;20436;-52
2022/11/17 01:08:34;;;;;;;1.33;0.90;;;9.80;99.90;;;;;;5096710;28;20425;-52
2022/11/17 01:11:10;;;;;;;1.60;1.00;;;9.80;99.90;;;;;;5097076;28;20438;-53
2022/11/17 01:13:37;;;;;;;1.40;0.90;;;9.80;99.90;;;;;;5096910;28;20434;-54
2022/11/17 01:16:09;;;;;;;1.38;1.00;;;9.90;99.90;;;;;;5097110;28;20779;-54
2022/11/17 01:18:37;;;;;;;1.55;0.90;;;9.90;99.90;;;;;;5096893;28;20483;-53
2022/11/17 01:21:07;;;;;;;1.67;0.90;;;9.90;99.90;;;;;;5096869;28;20894;-49
2022/11/17 01:23:34;;;;;;;1.50;0.90;;;9.90;99.90;;;;;;5096233;28;20438;-49
2022/11/17 01:26:03;;;;;;;1.50;1.00;;;9.90;99.90;;;;;;5096417;28;20426;-51
2022/11/17 01:28:30;;;;;;;2.00;0.90;;;9.90;99.90;;;;;;5096763;28;20826;-53
2022/11/17 01:31:02;;;;;;;1.50;1.00;;;9.80;99.90;;;;;;5096283;28;20841;-54
2022/11/17 01:33:30;;;;;;;1.40;1.10;;;9.80;99.90;;;;;;5094798;28;20487;-56
2022/11/17 01:36:01;;;;;;;2.15;0.95;;;9.80;99.90;;;;;;5094290;28;20673;-53
2022/11/17 01:38:28;;;;;;;2.00;0.90;;;9.80;99.90;;;;;;5095421;28;20486;-53
2022/11/17 01:40:58;;;;;;;1.30;0.98;;;9.80;99.90;;;;;;5095593;28;20513;-54
2022/11/17 01:43:42;;;;;;;1.70;0.90;;;9.90;99.90;;;;;;5096250;28;20425;-50
2022/11/17 01:46:19;;;;;;;1.60;0.90;;;9.90;99.90;;;;;;5096392;28;20425;-54
2022/11/17 01:48:51;;;;;;;1.80;0.80;;;9.90;99.90;;;;;;5095750;28;20414;-48
2022/11/17 01:51:18;;;;;;;1.55;0.90;;;10.00;99.90;;;;;;5095739;28;20418;-55
2022/11/17 01:53:47;;;;;;;1.00;0.82;;;10.00;99.90;;;;;;5096050;28;20430;-49
2022/11/17 01:56:18;;;;;;;1.70;0.90;;;10.00;99.90;;;;;;5095849;28;20451;-55
2022/11/17 01:58:51;;;;;;;1.50;0.80;;;10.00;99.90;;;;;;5095816;28;20863;-49
2022/11/17 02:01:18;;;;;;;2.00;0.95;;;9.90;99.90;;;;;;5095794;28;20467;-54
2022/11/17 02:03:50;;;;;;;2.50;0.90;;;9.90;99.90;;;;;;5095941;28;20426;-53
2022/11/17 02:06:23;;;;;;;1.20;0.90;;;9.90;99.90;;;;;;5095668;28;20414;-52
2022/11/17 02:08:52;;;;;;;1.10;0.80;;;9.90;99.90;;;;;;5095354;28;20525;-49
2022/11/17 02:11:21;;;;;;;2.00;0.98;;;9.90;99.90;;;;;;5096639;28;20807;-53
2022/11/17 02:13:50;;;;;;;1.30;0.80;;;9.90;99.90;;;;;;5096346;28;20722;-54
2022/11/17 02:16:17;;;;;;;2.45;0.90;;;9.90;97.90;;;;;;5096045;28;20418;-53
2022/11/17 02:18:45;;;;;;;2.40;1.00;;;9.80;98.10;;;;;;5095478;28;20491;-53
2022/11/17 02:21:39;;;;;;;2.03;1.00;;;9.70;99.90;;;;;;5095275;28;20438;-51
2022/11/17 02:24:42;;;;;;;1.50;1.00;;;9.60;99.90;;;;;;5095727;28;20421;-53
2022/11/17 02:27:47;;;;;;;1.50;0.80;;;9.70;99.90;;;;;;5095583;28;20421;-54
2022/11/17 02:30:18;;;;;;;1.73;1.00;;;9.70;99.90;;;;;;5095263;28;20421;-54
2022/11/17 02:32:57;;;;;;;2.30;0.90;;;9.70;99.90;;;;;;5095569;28;20437;-52
2022/11/17 02:35:27;;;;;;;1.20;0.98;;;9.80;99.90;;;;;;5095393;28;20421;-54
2022/11/17 02:38:05;;;;;;;2.90;1.10;;;9.70;99.90;;;;;;5094956;28;20459;-53
2022/11/17 02:40:34;;;;;;;1.30;0.80;;;9.70;99.90;;;;;;5095364;28;20467;-51
2022/11/17 02:45:58;;;;;;;1.50;0.90;;;9.70;99.90;;;;;;5094599;28;20491;-51
2022/11/17 02:48:29;;;;;;;1.10;0.80;;;9.50;99.90;;;;;;5105954;28;20424;-53
2022/11/17 02:50:58;;;;;;;0.97;0.70;;;9.60;99.90;;;;;;5115904;28;20441;-51
2022/11/17 02:53:27;;;;;;;1.75;0.80;;;9.60;99.90;;;;;;5115899;28;20431;-54
2022/11/17 02:55:54;;;;;;;2.20;0.80;;;9.70;99.90;;;;;;5115266;28;20473;-54
2022/11/17 02:58:23;;;;;;;1.10;0.77;;;9.70;99.90;;;;;;5115557;28;20948;-54
2022/11/17 03:01:04;;;;;;;2.10;0.90;;;9.70;96.10;;;;;;5115350;28;20419;-53
2022/11/17 03:03:44;;;;;;;1.10;0.80;;;9.60;95.20;;;;;;5114484;28;20436;-55
2022/11/17 03:06:20;;;;;;;1.10;0.80;;;9.70;99.90;;;;;;5115138;28;20485;-54
2022/11/17 03:08:58;;;;;;;1.80;0.80;;;9.80;99.90;;;;;;5115111;28;21049;-55
2022/11/17 03:11:37;;;;;;;0.90;0.70;;;9.90;95.60;;;;;;5115107;28;20416;-55
2022/11/17 03:14:09;;;;;;;1.10;0.77;;;10.00;70.90;;;;;;5115251;28;20469;-54
2022/11/17 03:16:41;;;;;;;1.43;0.80;;;10.10;57.20;;;;;;5115469;28;20450;-56
2022/11/17 03:19:15;;;;;;;1.90;0.80;;;10.20;65.20;;;;;;5114411;28;20735;-54
2022/11/17 03:21:50;;;;;;;1.40;0.90;;;10.20;70.50;;;;;;5114540;28;20412;-56
2022/11/17 03:24:21;;;;;;;1.50;1.00;;;10.30;62.80;;;;;;5114998;28;20455;-55
2022/11/17 03:26:55;;;;;;;1.30;0.90;;;10.20;96.00;;;;;;5114163;28;20416;-55
2022/11/17 03:29:28;;;;;;;1.38;0.88;;;10.10;94.80;;;;;;5114532;28;20485;-56
2022/11/17 03:31:58;;;;;;;1.70;1.00;;;10.00;99.90;;;;;;5114594;28;20433;-56
2022/11/17 03:34:29;;;;;;;2.80;1.10;;;9.80;99.90;;;;;;5114892;28;20457;-55
2022/11/17 03:37:01;;;;;;;1.52;0.90;;;9.80;99.90;;;;;;5114873;28;20489;-54
2022/11/17 03:39:31;;;;;;;1.70;0.90;;;9.90;99.90;;;;;;5114633;28;20848;-53
2022/11/17 03:42:04;;;;;;;1.38;0.80;;;9.90;99.90;;;;;;5115047;28;20473;-53
2022/11/17 03:44:36;;;;;;;1.60;0.90;;;9.90;99.90;;;;;;5114684;28;20420;-52
2022/11/17 03:47:05;;;;;;;1.57;0.80;;;9.90;99.90;;;;;;5114765;28;20896;-55
2022/11/17 03:49:38;;;;;;;1.40;0.80;;;9.90;99.90;;;;;;5113807;28;20424;-50
2022/11/17 03:52:05;;;;;;;1.40;0.80;;;9.90;99.90;;;;;;5113503;28;20839;-51
2022/11/17 03:54:33;;;;;;;2.00;0.80;;;9.90;99.90;;;;;;5113954;28;20517;-51
2022/11/17 03:57:06;;;;;;;1.13;0.82;;;9.90;99.90;;;;;;5113831;28;20481;-55
2022/11/17 03:59:42;;;;;;;1.10;0.80;;;9.80;99.90;;;;;;5117522;28;20476;-52
2022/11/17 04:02:13;;;;;;;1.63;0.70;;;9.80;99.90;;;;;;5118272;28;20431;-52
2022/11/17 04:07:25;;;;;;;1.30;0.68;;;9.60;99.90;;;;;;5118462;28;20407;-52
2022/11/17 04:09:52;;;;;;;1.80;0.70;;;9.60;99.90;;;;;;5118590;28;20465;-48
2022/11/17 04:18:19;;;;;;;0.80;0.60;;;9.70;99.90;;;;;;5054880;28;20529;-53
2022/11/17 04:20:49;;;;;;;1.40;0.60;;;9.70;99.90;;;;;;5097621;28;20486;-51
2022/11/17 04:23:16;;;;;;;1.83;0.60;;;9.80;99.90;;;;;;5118624;28;20424;-49
2022/11/17 04:28:36;;;;;;;1.00;0.60;;;9.80;99.90;;;;;;5118420;28;20407;-49
2022/11/17 04:31:08;;;;;;;0.98;0.60;;;9.80;99.90;;;;;;5118689;28;20485;-50
2022/11/17 04:33:36;;;;;;;0.90;0.60;;;10.00;99.90;;;;;;5118607;28;20492;-52
2022/11/17 04:36:05;;;;;;;1.00;0.60;;;9.90;99.90;;;;;;5118106;28;20478;-53
2022/11/17 04:38:32;;;;;;;0.90;0.60;;;9.90;99.90;;;;;;5117056;28;20427;-53
2022/11/17 04:43:49;;;;;;;0.98;0.60;;;9.90;99.90;;;;;;5117962;28;20473;-52
2022/11/17 04:46:18;;;;;;;0.90;0.60;;;10.00;99.90;;;;;;5118000;28;20416;-53
2022/11/17 04:48:46;;;;;;;0.83;0.50;;;10.00;99.90;;;;;;5117817;28;20923;-52
2022/11/17 04:51:13;;;;;;;1.40;0.60;;;10.00;99.90;;;;;;5117329;28;20424;-48
2022/11/17 04:53:40;;;;;;;1.38;0.70;;;10.00;99.90;;;;;;5116681;28;20424;-51
2022/11/17 04:56:08;;;;;;;1.20;0.80;;;10.00;99.90;;;;;;5117382;28;20416;-51
2022/11/17 04:58:35;;;;;;;1.33;0.60;;;10.00;99.90;;;;;;5117090;28;20481;-55
2022/11/17 05:01:12;;;;;;;0.90;0.60;;;10.00;99.90;;;;;;5117739;28;20416;-52
2022/11/17 05:03:44;;;;;;;0.90;0.60;;;10.00;99.90;;;;;;5117732;28;20456;-56
2022/11/17 05:06:13;;;;;;;1.60;0.70;;;10.10;99.90;;;;;;5117274;28;20420;-53
2022/11/17 05:08:41;;;;;;;1.00;0.70;;;10.10;99.90;;;;;;5117775;28;20423;-55
2022/11/17 05:13:54;;;;;;;1.58;0.70;;;10.00;99.90;;;;;;5117350;28;20407;-55
2022/11/17 05:19:11;;;;;;;1.95;0.70;;;9.90;99.90;;;;;;5116028;28;20415;-54
2022/11/17 05:21:38;;;;;;;1.75;0.70;;;9.90;99.90;;;;;;5116493;28;20424;-55
2022/11/17 05:24:05;;;;;;;1.00;0.60;;;10.00;99.90;;;;;;5117443;28;20480;-55
2022/11/17 05:26:34;;;;;;;0.80;0.60;;;10.00;99.90;;;;;;5116878;28;20506;-53
2022/11/17 05:29:02;;;;;;;0.90;0.60;;;10.10;99.90;;;;;;5116954;28;20420;-55
2022/11/17 05:31:30;;;;;;;1.43;0.60;;;10.10;99.90;;;;;;5116872;28;20906;-54
2022/11/17 05:33:57;;;;;;;1.10;0.60;;;10.20;99.90;;;;;;5116878;28;20419;-54
2022/11/17 05:36:27;;;;;;;1.00;0.70;;;10.20;99.90;;;;;;5116640;28;20488;-55
2022/11/17 05:38:55;;;;;;;0.82;0.60;;;10.20;99.90;;;;;;5117391;28;20427;-50
2022/11/17 05:41:23;;;;;;;1.10;0.70;;;10.20;99.90;;;;;;5116548;28;20420;-52
2022/11/17 05:43:50;;;;;;;1.70;0.70;;;10.20;99.90;;;;;;5117086;28;20432;-54
2022/11/17 05:46:18;;;;;;;1.20;0.70;;;10.20;99.90;;;;;;5116637;28;20416;-53
2022/11/17 05:48:45;;;;;;;1.42;1.10;;;10.20;99.90;;;;;;5115546;28;20428;-51
2022/11/17 05:51:12;;;;;;;0.90;0.60;;;10.20;99.90;;;;;;5116665;28;20930;-53
2022/11/17 05:53:41;;;;;;;1.10;0.60;;;10.30;99.90;;;;;;5115411;28;20476;-55
2022/11/17 05:56:15;;;;;;;0.82;0.57;;;10.40;99.90;;;;;;5115788;28;20848;-52
2022/11/17 05:58:46;;;;;;;0.90;0.50;;;10.40;99.90;;;;;;5115231;28;20420;-53
2022/11/17 06:01:15;;;;;;;0.90;0.60;;;10.50;99.90;;;;;;5115326;28;20412;-55
2022/11/17 06:03:46;;;;;;;0.90;0.70;;;10.50;99.90;;;;;;5115896;28;20424;-55
2022/11/17 06:06:13;;;;;;;1.10;0.63;;;10.50;99.90;;;;;;5116067;28;20473;-55
2022/11/17 06:08:42;;;;;;;1.40;0.70;;;10.50;99.90;;;;;;5116299;28;20427;-56
2022/11/17 06:11:09;;;;;;;1.00;0.60;;;10.40;99.90;;;;;;5116069;28;21023;-54
2022/11/17 06:13:36;;;;;;;1.02;0.60;;;10.30;99.90;;;;;;5116088;28;20481;-56
2022/11/17 06:16:08;;;;;;;1.38;0.60;;;10.20;99.90;;;;;;5115812;28;20408;-55
2022/11/17 06:18:38;;;;;;;1.07;0.97;;;10.20;99.90;;;;;;5115963;28;20863;-54
2022/11/17 06:21:08;;;;;;;1.30;0.60;;;10.30;99.90;;;;;;5114745;28;20861;-55
2022/11/17 06:23:36;;;;;;;0.80;0.60;;;10.30;99.90;;;;;;5115695;28;20850;-57
2022/11/17 06:26:08;;;;;;;2.00;0.60;;;10.30;99.90;;;;;;5114417;28;20420;-55
2022/11/17 06:28:38;;;;;;;1.30;0.50;;;10.30;99.90;;;;;;5113132;28;20928;-55
2022/11/17 06:31:07;;;;;;;1.08;0.70;;;10.30;99.90;;;;;;5115767;28;20770;-56
2022/11/17 06:33:35;;;;;;;1.10;0.60;;;10.20;99.90;;;;;;5114520;28;20434;-50
2022/11/17 06:36:06;;;;;;;0.80;0.50;;;10.20;99.90;;;;;;5115059;28;20449;-52
2022/11/17 06:38:34;;;;;;;0.80;0.50;;;10.10;99.90;;;;;;5111369;28;20530;-54
2022/11/17 06:41:02;;;;;;;0.80;0.50;;;10.10;99.90;;;;;;5114241;28;20424;-53
2022/11/17 06:43:30;;;;;;;0.90;0.50;;;10.10;99.90;;;;;;5114570;28;20424;-55
2022/11/17 06:46:01;;;;;;;0.70;0.50;;;10.10;99.90;;;;;;5113951;28;20466;-55
2022/11/17 06:48:28;;;;;;;0.90;0.60;;;10.10;99.90;;;;;;5112951;28;20746;-54
2022/11/17 06:50:55;;;;;;;1.00;0.50;;;10.20;99.90;;;;;;5114680;28;20416;-54
2022/11/17 06:53:25;;;;;;;0.80;0.40;;;10.30;99.90;;;;;;5110607;28;20440;-53
2022/11/17 06:55:53;;;;;;;0.60;0.40;;;10.30;99.90;;;;;;5114844;28;20438;-56
2022/11/17 06:58:20;;;;;;;0.70;0.50;;;10.40;99.90;;;;;;5112826;28;20518;-56
2022/11/17 07:00:49;;;;;;;0.80;0.40;;;10.40;99.90;;;;;;5113870;28;20485;-51
2022/11/17 07:03:16;;;;;;;0.80;0.50;;;10.50;99.90;;;;;;5113842;28;20424;-54
2022/11/17 07:05:43;;;;;;;0.70;0.40;;;10.50;99.90;;;;;;5112461;28;20469;-56
2022/11/17 07:08:10;;;;;;;0.93;0.40;;;10.60;99.90;;;;;;5111785;28;20412;-56
2022/11/17 07:10:37;;;;;;;0.70;0.40;;;10.50;99.90;;;;;;5111790;28;20420;-56
2022/11/17 07:13:04;;;;;;;1.70;0.40;;;10.50;99.90;;;;;;5113608;28;20731;-55
2022/11/17 07:15:32;;;;;;;1.20;0.40;;;10.50;99.90;;;;;;5111767;28;20493;-56
2022/11/17 07:18:00;;;;;;;1.33;0.45;;;10.50;99.90;;;;;;5112125;28;20481;-56
2022/11/17 07:20:27;;;;;;;1.00;0.40;;;10.50;99.90;;;;;;5111667;28;20734;-51
2022/11/17 07:22:58;;;;;;;0.85;0.50;;;10.50;99.90;;;;;;5113701;28;20416;-55
2022/11/17 07:25:25;;;;;;;0.73;0.40;;;10.50;99.90;;;;;;5113688;28;20430;-54
2022/11/17 07:27:58;;;;;;;0.60;0.40;;;10.50;99.90;;;;;;5110617;28;20432;-55
2022/11/17 07:30:26;;;;;;;0.80;0.40;;;10.50;99.90;;;;;;5111428;28;20426;-59
2022/11/17 07:32:53;;;;;;;0.60;0.40;;;10.60;99.90;;;;;;5111476;28;20458;-54
2022/11/17 07:35:21;;;;;;;0.70;0.40;;;10.80;99.90;;;;;;5115554;28;20500;-55
2022/11/17 07:37:48;;;;;;;0.73;0.30;;;10.80;99.90;;;;;;5114203;28;20427;-55
2022/11/17 07:40:16;;;;;;;0.50;0.30;;;10.80;99.90;;;;;;5114597;28;20451;-53
2022/11/17 07:42:48;;;;;;;0.90;0.40;;;10.80;99.90;;;;;;5114921;28;20427;-56
2022/11/17 07:45:15;;;;;;;1.00;0.40;;;10.90;99.90;;;;;;5114853;28;20408;-55
2022/11/17 07:47:42;;;;;;;0.50;0.40;;;10.90;99.90;;;;;;5112729;28;20751;-54
2022/11/17 07:50:10;;;;;;;1.60;0.30;;;10.80;99.90;;;;;;5113786;28;20621;-56
2022/11/17 07:52:38;;;;;;;0.80;0.30;;;10.90;99.90;;;;;;5114672;28;20427;-55
2022/11/17 07:55:06;;;;;;;1.70;0.30;;;10.90;99.90;;;;;;5114127;28;20484;-56
2022/11/17 07:57:33;;;;;;;0.55;0.30;;;10.90;99.90;;;;;;5115408;28;20793;-56
2022/11/17 08:00:00;;;;;;;0.70;0.40;;;11.00;99.90;;;;;;5115217;28;20508;-56
2022/11/17 08:02:27;;;;;;;2.40;0.40;;;11.00;99.90;;;;;;5114649;28;20420;-54
2022/11/17 08:04:54;;;;;;;1.00;0.30;;;11.00;99.90;;;;;;5113589;28;20847;-55
2022/11/17 08:07:21;;;;;;;0.77;0.40;;;11.00;99.90;;;;;;5114442;28;20591;-55
2022/11/17 08:09:49;;;;;;;0.70;0.30;;;11.10;99.90;;;;;;5114249;28;20412;-50
2022/11/17 08:12:16;;;;;;;0.60;0.30;;;11.20;99.90;;;;;;5114676;28;20428;-50
2022/11/17 08:14:43;;;;;;;0.80;0.30;;;11.20;99.90;;;;;;5114768;28;20420;-52
2022/11/17 08:17:10;;;;;;;0.50;0.30;;;11.30;99.90;;;;;;5115385;28;20493;-55
2022/11/17 08:19:37;;;;;;;0.70;0.30;;;11.50;99.90;;;;;;5114959;28;20488;-56
2022/11/17 08:22:04;;;;;;;0.50;0.30;;;11.60;91.60;;;;;;5113824;28;20432;-56
2022/11/17 08:24:31;;;;;;;1.15;0.30;;;11.70;53.20;;;;;;5114408;28;20427;-55
2022/11/17 08:27:00;;;;;;;0.60;0.20;;;11.90;67.50;;;;;;5114583;28;20434;-57
2022/11/17 08:29:27;;;;;;;0.80;0.20;;;12.00;40.10;;;;;;5114327;28;20438;-54
2022/11/17 08:31:54;;;;;;;0.50;0.20;;;12.00;38.30;;;;;;5112444;28;20409;-56
2022/11/17 08:34:21;;;;;;;0.80;0.20;;;12.10;29.60;;;;;;5113689;28;20412;-55
2022/11/17 08:36:48;;;;;;;1.40;0.20;;;12.20;34.80;;;;;;5111798;28;20419;-56
2022/11/17 08:39:15;;;;;;;0.90;0.30;;;12.30;28.90;;;;;;5113794;28;20445;-53
2022/11/17 08:41:42;;;;;;;0.80;0.30;;;12.20;12.90;;;;;;5112716;28;20423;-54
2022/11/17 08:44:10;;;;;;;0.40;0.20;;;12.20;30.30;;;;;;5094729;28;20624;-56
2022/11/17 08:46:37;;;;;;;0.50;0.20;;;12.10;22.00;;;;;;5093954;28;20414;-56
2022/11/17 08:49:04;;;;;;;0.30;0.10;;;12.10;28.30;;;;;;5092107;28;20475;-56
2022/11/17 08:51:32;;;;;;;0.50;0.20;;;12.10;35.30;;;;;;5092914;28;20640;-57
2022/11/17 08:53:59;;;;;;;0.50;0.20;;;12.30;27.10;;;;;;5093909;28;20737;-53
2022/11/17 08:56:26;;;;;;;1.60;0.20;;;12.30;15.80;;;;;;5094362;28;20436;-55
2022/11/17 08:58:53;;;;;;;0.80;0.20;;;12.30;17.90;;;;;;5094121;28;20479;-52
2022/11/17 09:01:21;;;;;;;0.60;0.30;;;12.40;14.30;;;;;;5093640;28;20790;-53
2022/11/17 09:03:48;;;;;;;1.50;0.20;;;12.50;17.00;;;;;;5094597;28;20436;-52
2022/11/17 09:06:16;;;;;;;0.50;0.20;;;12.40;9.30;;;;;;5094565;28;20418;-53
2022/11/17 09:08:44;;;;;;;0.40;0.20;;;12.40;5.30;;;;;;5094936;28;20779;-56
2022/11/17 09:11:13;;;;;;;0.55;0.10;;;12.40;3.70;;;;;;5094688;28;20795;-58
2022/11/17 09:13:41;;;;;;;0.50;0.10;;;12.40;1.00;;;;;;5093365;28;20429;-58
2022/11/17 09:16:10;;;;;;;0.30;0.10;;;12.50;1.00;;;;;;5092829;28;20767;-54
2022/11/17 09:18:39;;;;;;;0.60;0.10;;;12.60;1.00;;;;;;5094034;28;20430;-57
2022/11/17 09:21:08;;;;;;;0.60;0.10;;;12.70;1.00;;;;;;5093671;28;20508;-52
2022/11/17 09:23:35;;;;;;;0.45;0.20;;;12.70;1.00;;;;;;5094753;28;20826;-55
2022/11/17 09:26:06;;;;;;;0.40;0.10;;;12.70;1.00;;;;;;5110702;28;20513;-53
2022/11/17 09:28:33;;;;;;;0.80;0.10;;;12.80;1.00;;;;;;5111141;28;20851;-55
2022/11/17 09:31:00;;;;;;;0.60;0.30;;;12.80;1.00;;;;;;5110327;28;20424;-55
2022/11/17 09:33:27;;;;;;;0.50;0.20;;;12.90;1.00;;;;;;5110587;28;20468;-54
2022/11/17 09:35:58;;;;;;;1.60;0.30;;;13.10;1.00;;;;;;5097566;28;20442;-57
2022/11/17 09:38:25;;;;;;;0.70;0.30;;;13.10;1.00;;;;;;5094962;28;20460;-53
2022/11/17 09:40:54;;;;;;;0.50;0.10;;;13.10;1.00;;;;;;5104085;28;20460;-53
2022/11/17 09:43:27;;;;;;;0.40;0.20;;;13.20;1.00;;;;;;5094286;28;20437;-56
2022/11/17 09:45:59;;;;;;;0.40;0.20;;;13.20;1.00;;;;;;5094983;28;20502;-51
2022/11/17 09:48:36;;;;;;;0.60;0.20;;;13.40;1.00;;;;;;5104976;28;20489;-56
2022/11/17 09:51:11;;;;;;;1.00;0.20;;;13.30;1.00;;;;;;5115136;28;20408;-53
2022/11/17 09:53:44;;;;;;;0.83;0.20;;;13.40;1.00;;;;;;5115730;28;20508;-53
2022/11/17 09:56:13;;;;;;;1.07;0.10;;;13.30;1.00;;;;;;5113162;28;20872;-54
2022/11/17 09:58:46;;;;;;;0.60;0.20;;;13.30;1.00;;;;;;5115424;28;20517;-51
2022/11/17 10:01:15;;;;;;;0.30;0.20;;;13.20;1.00;;;;;;5115417;28;21066;-56
2022/11/17 10:03:43;;;;;;;0.60;0.17;;;13.20;1.00;;;;;;5114030;28;20448;-55
2022/11/17 10:06:16;;;;;;;1.00;0.13;;;13.20;1.00;;;;;;5112094;28;20448;-54
2022/11/17 10:08:51;;;;;;;0.30;0.10;;;13.20;1.00;;;;;;5113110;28;20456;-55
2022/11/17 10:11:34;;;;;;;0.30;0.20;;;13.00;1.00;;;;;;5110490;28;20883;-55
2022/11/17 10:14:14;;;;;;;0.57;0.20;;;13.20;1.00;;;;;;5107205;28;20466;-54
2022/11/17 10:16:43;;;;;;;2.80;0.27;;;13.30;1.00;;;;;;5110411;28;20479;-54
2022/11/17 10:19:16;;;;;;;0.30;0.10;;;13.40;1.00;;;;;;5102492;28;20907;-56
2022/11/17 10:21:47;;;;;;;1.03;0.20;;;13.50;1.00;;;;;;5094250;28;20931;-56
2022/11/17 10:24:36;;;;;;;0.53;0.27;;;13.70;1.00;;;;;;5105608;28;20505;-55
2022/11/17 10:27:05;;;;;;;3.03;0.20;;;13.50;1.00;;;;;;5114499;28;20944;-54
2022/11/17 10:29:32;;;;;;;1.00;0.10;;;13.50;1.00;;;;;;5112615;28;20893;-55
2022/11/17 10:32:00;;;;;;;0.90;0.20;;;13.40;1.00;;;;;;5110903;28;20506;-53
2022/11/17 10:34:32;;;;;;;1.00;0.20;;;13.50;1.00;;;;;;5113976;28;20539;-52
2022/11/17 10:37:06;;;;;;;1.10;0.20;;;13.40;1.00;;;;;;5113346;28;20611;-55
2022/11/17 10:39:36;;;;;;;2.40;0.10;;;13.60;99.90;;;;;;5102277;28;20540;-53
2022/11/17 10:42:22;;;;;;;0.67;0.17;;;13.60;99.90;;;;;;5100014;28;20473;-56
2022/11/17 10:44:52;;;;;;;0.40;0.10;;;13.60;99.90;;;;;;5101215;28;20505;-51
2022/11/17 10:47:29;;;;;;;3.33;0.30;;;13.60;99.90;;;;;;5111196;28;20505;-49
2022/11/17 10:50:24;;;;;;;1.07;0.20;;;13.60;1.00;;;;;;5098101;28;20919;-55
2022/11/17 10:52:54;;;;;;;0.70;0.22;;;13.60;99.90;;;;;;5095655;28;20527;-55
2022/11/17 10:55:28;;;;;;;0.90;0.30;;;13.60;1.00;;;;;;5093025;28;20208;-55
2022/11/17 10:58:00;;;;;;;0.80;0.30;;;13.50;1.00;;;;;;5096575;28;20783;-55
2022/11/17 11:00:31;;;;;;;1.60;0.33;;;13.60;1.00;;;;;;5097166;28;20441;-54
2022/11/17 11:03:07;;;;;;;0.40;0.20;;;13.60;99.90;;;;;;5108018;28;20464;-52
2022/11/17 11:05:34;;;;;;;0.50;0.20;;;13.50;1.00;;;;;;5112317;28;20444;-54
2022/11/17 11:08:18;;;;;;;0.57;0.10;;;13.40;1.00;;;;;;5101518;28;20597;-52
2022/11/17 11:10:50;;;;;;;1.10;0.20;;;13.40;1.00;;;;;;5098954;28;20506;-55
2022/11/17 11:13:25;;;;;;;0.50;0.10;;;13.40;1.00;;;;;;5094210;28;20461;-54
2022/11/17 11:15:53;;;;;;;0.30;0.20;;;13.50;1.00;;;;;;5105112;28;20906;-50
2022/11/17 11:18:22;;;;;;;0.50;0.17;;;13.70;1.00;;;;;;5109740;28;20592;-52
2022/11/17 11:20:58;;;;;;;1.30;0.20;;;13.60;1.00;;;;;;5098440;28;20654;-55
2022/11/17 11:23:39;;;;;;;0.40;0.10;;;13.60;1.00;;;;;;5103857;28;21054;-54
2022/11/17 11:26:17;;;;;;;1.03;0.20;;;13.60;99.90;;;;;;5099353;28;20577;-56
2022/11/17 11:28:56;;;;;;;1.33;0.20;;;13.60;99.90;;;;;;5093207;28;20502;-53
2022/11/17 11:31:31;;;;;;;0.70;0.30;;;13.60;1.00;;;;;;5105547;28;20453;-52
2022/11/17 11:34:06;;;;;;;0.40;0.23;;;13.50;1.00;;;;;;5109927;28;20503;-54
2022/11/17 11:36:39;;;;;;;2.17;0.30;;;13.50;99.90;;;;;;5090716;28;20441;-53
2022/11/17 11:39:21;;;;;;;1.80;0.40;;;13.60;1.00;;;;;;5093027;28;20445;-51
2022/11/17 11:42:08;;;;;;;1.93;0.20;;;13.60;1.00;;;;;;5097959;28;21075;-53
2022/11/17 11:45:00;;;;;;;1.90;0.20;;;13.70;99.90;;;;;;5096649;28;20507;-56
2022/11/17 11:47:42;;;;;;;0.60;0.40;;;13.80;99.90;;;;;;5092717;28;20506;-54
2022/11/17 11:50:15;;;;;;;0.50;0.20;;;13.90;1.00;;;;;;5098520;28;20469;-53
2022/11/17 11:52:48;;;;;;;0.37;0.20;;;13.90;1.00;;;;;;5110595;28;20458;-56
2022/11/17 11:55:21;;;;;;;0.40;0.20;;;13.80;1.00;;;;;;5103967;28;20541;-56
2022/11/17 11:57:55;;;;;;;2.07;0.30;;;13.90;1.00;;;;;;5090487;28;20464;-56
2022/11/17 12:00:22;;;;;;;0.80;0.27;;;13.80;1.00;;;;;;5108628;28;20445;-57
2022/11/17 12:02:54;;;;;;;1.37;0.40;;;13.80;1.00;;;;;;5090958;28;21141;-55
2022/11/17 12:05:28;;;;;;;0.70;0.20;;;13.80;1.00;;;;;;5097145;28;20445;-55
2022/11/17 12:08:03;;;;;;;0.53;0.20;;;13.80;1.00;;;;;;5090654;28;20460;-56
2022/11/17 12:10:37;;;;;;;1.90;0.20;;;13.80;1.00;;;;;;5106049;28;20529;-56
2022/11/17 12:13:05;;;;;;;0.60;0.20;;;13.70;1.00;;;;;;5097557;28;20453;-57
2022/11/17 12:15:36;;;;;;;0.87;0.20;;;13.70;1.00;;;;;;5092413;28;21172;-56
2022/11/17 12:18:06;;;;;;;0.30;0.17;;;13.50;1.00;;;;;;5092930;28;20458;-56
2022/11/17 12:20:59;;;;;;;0.80;0.20;;;13.60;1.00;;;;;;5107338;28;20440;-57
2022/11/17 12:24:00;;;;;;;0.93;0.20;;;13.60;1.00;;;;;;5102160;28;20921;-53
2022/11/17 12:26:30;;;;;;;0.87;0.20;;;13.60;1.00;;;;;;5097072;28;20456;-56
2022/11/17 12:29:30;;;;;;;2.63;0.20;;;13.70;1.00;;;;;;5096053;28;20477;-56
2022/11/17 12:31:59;;;;;;;0.63;0.20;;;13.70;99.90;;;;;;5099236;28;20509;-56
2022/11/17 12:34:31;;;;;;;1.07;0.20;;;13.70;99.90;;;;;;5097428;28;20457;-56
2022/11/17 12:37:25;;;;;;;0.80;0.23;;;13.80;99.90;;;;;;5111993;28;20452;-56
2022/11/17 12:40:06;;;;;;;3.70;0.37;;;13.90;99.90;;;;;;5115900;28;20448;-55
2022/11/17 12:42:36;;;;;;;0.60;0.23;;;13.90;99.90;;;;;;5107853;27;20567;-56
2022/11/17 12:45:10;;;;;;;1.13;0.20;;;13.90;99.90;;;;;;5115508;28;20437;-57
2022/11/17 12:47:38;;;;;;;0.40;0.10;;;13.80;41.40;;;;;;5106244;28;20480;-59
2022/11/17 12:50:41;;;;;;;1.17;0.30;;;13.90;99.90;;;;;;5098113;28;20446;-57
2022/11/17 12:53:25;;;;;;;1.07;0.20;;;13.90;99.90;;;;;;5094638;28;20445;-56
2022/11/17 12:56:20;;;;;;;0.40;0.20;;;13.90;99.90;;;;;;5099756;28;20441;-54
2022/11/17 12:59:15;;;;;;;1.73;0.30;;;13.90;99.90;;;;;;5103774;28;20891;-58
2022/11/17 13:01:48;;;;;;;1.03;0.30;;;13.90;99.90;;;;;;5107717;28;20943;-50
2022/11/17 13:04:18;;;;;;;0.70;0.20;;;13.90;99.90;;;;;;5111124;28;20444;-54
2022/11/17 13:07:01;;;;;;;0.40;0.20;;;13.90;99.90;;;;;;5113578;28;20448;-51
2022/11/17 13:09:31;;;;;;;0.50;0.20;;;14.00;1.00;;;;;;5113880;28;20449;-55
2022/11/17 13:12:03;;;;;;;1.20;0.20;;;13.90;1.00;;;;;;5114448;28;20505;-52
2022/11/17 13:14:31;;;;;;;2.77;0.30;;;13.90;1.00;;;;;;5093369;28;20532;-55
2022/11/17 13:17:00;;;;;;;0.43;0.20;;;13.90;1.00;;;;;;5093416;28;20456;-57
2022/11/17 13:19:36;;;;;;;0.83;0.20;;;14.00;1.00;;;;;;5095752;28;20537;-57
2022/11/17 13:22:05;;;;;;;0.97;0.10;;;14.00;1.00;;;;;;5095711;28;20931;-55
2022/11/17 13:24:35;;;;;;;1.67;0.20;;;13.90;1.00;;;;;;5101228;28;20472;-57
2022/11/17 13:27:06;;;;;;;2.73;0.30;;;13.90;85.60;;;;;;5109879;28;20563;-56
2022/11/17 13:29:34;;;;;;;1.53;0.20;;;13.90;1.00;;;;;;5116127;28;20451;-58
2022/11/17 13:32:17;;;;;;;1.43;0.20;;;13.90;1.00;;;;;;5106661;28;20450;-55
2022/11/17 13:34:56;;;;;;;2.30;0.30;;;14.00;99.90;;;;;;5102209;28;20688;-56
2022/11/17 13:37:25;;;;;;;1.20;0.27;;;14.00;1.00;;;;;;5100523;28;20878;-57
2022/11/17 13:40:00;;;;;;;0.93;0.30;;;13.90;1.00;;;;;;5094551;28;20945;-56
2022/11/17 13:42:31;;;;;;;0.90;0.30;;;13.80;99.90;;;;;;5098765;28;21250;-55
2022/11/17 13:45:05;;;;;;;0.77;0.30;;;13.80;99.90;;;;;;5097599;28;20446;-55